Currently 63°F in Temecula, California, USA
63°F
64°F / 62°F
7 mph NE
0.00"
Wednesday, November 14, 2018 1:39 AM PST

Temecula, California Weather Summary
Last 36 Hours

Temperature Winds Hourly Humidity Dewpoint
Time Report Norm Report Norm Max Gusts Precip. Rpt. Norm Rpt. Norm Pressure
1Wed 01:39 AM  63.4°F  51°F  7 mph NE  1 mph  12 mph  0.00"  15%  76%  13°F  43°F  30.26"
2Wed 01:24 AM  63.5°F  51°F  3 mph SE  1 mph  14 mph  ----  15%  76%  13°F  43°F  30.26"
Wed 01:00 AM  63.3°F  52°F  10 mph NE  1 mph  20 mph  0.00"  15%  75%  13°F  44°F  30.27"
3Wed 12:00 AM  61.8°F  53°F  7 mph NE  1 mph  12 mph  0.00"  16%  73%  13°F  44°F  30.28"
Tue 11:00 PM  62.5°F  54°F  6 mph NE  1 mph  15 mph  0.00"  15%  71%  12°F  44°F  30.29"
Tue 10:00 PM  63.6°F  55°F  5 mph NE  1 mph  23 mph  0.00"  15%  69%  13°F  45°F  30.30"
Tue 09:00 PM  64.8°F  57°F  6 mph E  1 mph  27 mph  0.00"  14%  67%  13°F  45°F  30.28"
Tue 08:00 PM  65.0°F  58°F  8 mph NE  2 mph  20 mph  0.00"  14%  65%  13°F  46°F  30.28"
Tue 07:00 PM  64.8°F  61°F  1 mph NE  2 mph  23 mph  0.00"  15%  61%  14°F  46°F  30.28"
Tue 06:00 PM  65.5°F  63°F  8 mph NE  3 mph  27 mph  0.00"  15%  56%  14°F  47°F  30.27"
Tue 05:00 PM  66.5°F  66°F  13 mph NE  3 mph  25 mph  0.00"  14%  51%  14°F  47°F  30.25"
Tue 04:00 PM  67.9°F  71°F  10 mph NE  4 mph  27 mph  0.00"  14%  44%  15°F  47°F  30.25"
Tue 03:00 PM  69.4°F  74°F  8 mph E  5 mph  32 mph  0.00"  15%  39%  17°F  46°F  30.25"
Tue 02:00 PM  71.2°F  75°F  8 mph NE  5 mph  28 mph  0.00"  13%  37%  16°F  46°F  30.23"
Tue 01:00 PM  71.0°F  74°F  14 mph NE  5 mph  28 mph  0.00"  13%  37%  16°F  45°F  30.25"
Tue 12:00 PM  69.7°F  72°F  11 mph E  4 mph  33 mph  0.00"  14%  40%  17°F  46°F  30.26"
Tue 11:00 AM  68.7°F  68°F  9 mph NE  3 mph  29 mph  0.00"  15%  48%  17°F  47°F  30.34"
Tue 10:00 AM  67.4°F  62°F  11 mph E  2 mph  32 mph  0.00"  15%  60%  16°F  48°F  30.36"
Tue 09:00 AM  65.4°F  56°F  12 mph E  1 mph  28 mph  0.00"  15%  72%  15°F  47°F  30.36"
Tue 08:00 AM  63.4°F  50°F  12 mph NE  1 mph  28 mph  0.00"  17%  81%  15°F  44°F  30.35"
Tue 07:00 AM  59.7°F  48°F  12 mph NE  1 mph  21 mph  0.00"  18%  84%  15°F  43°F  30.35"
Tue 06:00 AM  59.2°F  48°F  3 mph NE  1 mph  18 mph  0.00"  18%  83%  14°F  43°F  30.37"
Tue 05:00 AM  59.0°F  48°F  7 mph NE  1 mph  15 mph  0.00"  19%  82%  14°F  43°F  30.34"
Tue 04:00 AM  60.0°F  49°F  8 mph NE  1 mph  20 mph  0.00"  18%  81%  14°F  43°F  30.33"
Tue 03:00 AM  58.9°F  50°F  7 mph E  1 mph  11 mph  0.00"  19%  80%  14°F  44°F  30.35"
Tue 02:00 AM  61.4°F  51°F  4 mph NE  1 mph  23 mph  0.00"  16%  78%  13°F  44°F  30.36"
Tue 01:00 AM  62.4°F  52°F  12 mph NE  1 mph  28 mph  0.00"  15%  76%  13°F  44°F  30.34"
Tue 12:00 AM  62.4°F  53°F  8 mph NE  1 mph  28 mph  0.00"  16%  74%  13°F  45°F  30.35"
Mon 11:00 PM  62.4°F  54°F  11 mph NE  1 mph  26 mph  0.00"  16%  72%  13°F  45°F  30.33"
Mon 10:00 PM  61.3°F  55°F  5 mph NE  1 mph  18 mph  0.00"  18%  70%  15°F  45°F  30.34"
Mon 09:00 PM  61.5°F  57°F  5 mph NE  1 mph  22 mph  0.00"  17%  68%  15°F  46°F  30.32"
Mon 08:00 PM  63.6°F  59°F  8 mph NE  2 mph  24 mph  0.00"  15%  65%  14°F  47°F  30.30"
Mon 07:00 PM  64.8°F  61°F  7 mph E  2 mph  29 mph  0.00"  15%  62%  13°F  47°F  30.28"
Mon 06:00 PM  65.6°F  63°F  8 mph E  3 mph  23 mph  0.00"  14%  57%  13°F  47°F  30.26"
Mon 05:00 PM  67.0°F  66°F  10 mph E  3 mph  19 mph  0.00"  13%  52%  13°F  47°F  30.23"
Mon 04:00 PM  70.1°F  71°F  6 mph E  5 mph  20 mph  0.00"  12%  44%  13°F  47°F  30.20"
Mon 03:00 PM  72.1°F  74°F  9 mph E  6 mph  22 mph  0.00"  11%  40%  13°F  47°F  30.19"
Mon 02:00 PM  73.1°F  75°F  8 mph NE  5 mph  21 mph  0.00"  12%  37%  15°F  46°F  30.17"

  1. Current weather data. No green row appears if the current weather data is also the high or low for the current day.
  2. High temperature for the current day.
  3. Low temperature for the current day.

The Temecula weather pages are a service of WeatherCurrents. Temecula, California is located in the Temecula Valley, in southwestern Riverside County, along the Interstate 15 highway. The Temecula Valley's rolling hills are home to the Temecula wine country, vineyards, golf courses, a casino resort, and Old Town Temecula.
Copyright ©Wed Nov 14 01:40:04 PST 2018  WeatherCurrents. All rights reserved. - Submit questions and comments - Privacy Policy

This page automatically refreshes every 10 minutes.